createdAt,value
2022-10-13T00:02:49.031Z,81
2022-10-13T00:07:51.221Z,81
2022-10-13T00:12:53.276Z,82
2022-10-13T00:17:54.753Z,82
2022-10-13T00:22:56.527Z,82
2022-10-13T00:27:58.671Z,82
2022-10-13T00:32:59.864Z,82
2022-10-13T00:38:01.662Z,81
2022-10-13T00:43:03.578Z,81
2022-10-13T00:48:05.440Z,82
2022-10-13T00:53:07.584Z,81
2022-10-13T00:58:09.375Z,81
2022-10-13T01:03:10.684Z,81
2022-10-13T01:08:12.470Z,81
2022-10-13T01:13:14.097Z,81
2022-10-13T01:18:15.442Z,81
2022-10-13T01:23:16.599Z,81
2022-10-13T01:28:17.908Z,80
2022-10-13T01:33:19.137Z,80
2022-10-13T01:38:20.904Z,81
2022-10-13T01:43:22.710Z,82
2022-10-13T01:48:24.636Z,83
2022-10-13T01:53:26.713Z,83
2022-10-13T01:58:28.681Z,84
2022-10-13T02:03:30.539Z,85
2022-10-13T02:08:32.557Z,88
2022-10-13T02:13:34.740Z,88
2022-10-13T02:18:36.158Z,89
2022-10-13T02:23:38.258Z,91
2022-10-13T02:28:39.570Z,91
2022-10-13T02:33:40.803Z,90
2022-10-13T02:38:42.776Z,90
2022-10-13T02:43:44.465Z,90
2022-10-13T02:48:45.614Z,89
2022-10-13T02:53:47.567Z,90
2022-10-13T02:58:49.199Z,90
2022-10-13T03:03:51.131Z,90
2022-10-13T03:08:53.022Z,90
2022-10-13T03:13:54.763Z,91
2022-10-13T03:18:56.189Z,91
2022-10-13T03:23:57.677Z,90
2022-10-13T03:28:59.951Z,90
2022-10-13T03:34:01.977Z,89
2022-10-13T03:39:04.040Z,88
2022-10-13T03:44:05.752Z,88
2022-10-13T03:49:07.903Z,88
2022-10-13T03:54:09.731Z,89
2022-10-13T03:59:11.144Z,90
2022-10-13T04:04:13.243Z,91
2022-10-13T04:09:15.068Z,90
2022-10-13T04:14:16.542Z,89
2022-10-13T04:19:18.202Z,89
2022-10-13T04:24:20.354Z,89
2022-10-13T04:29:22.160Z,89
2022-10-13T04:34:23.565Z,89
2022-10-13T04:39:25.419Z,89
2022-10-13T04:44:27.238Z,89
2022-10-13T04:49:28.365Z,89
2022-10-13T04:54:30.012Z,89
2022-10-13T04:59:32.132Z,88
2022-10-13T05:04:34.124Z,88
2022-10-13T05:09:36.105Z,88
2022-10-13T05:14:37.565Z,88
2022-10-13T05:19:38.857Z,88
2022-10-13T05:24:40.143Z,88
2022-10-13T05:29:41.998Z,87
2022-10-13T05:34:43.771Z,87
2022-10-13T05:39:48.734Z,88
2022-10-13T05:44:47.961Z,87
2022-10-13T05:49:49.290Z,88
2022-10-13T05:54:50.708Z,88
2022-10-13T05:59:52.072Z,88
2022-10-13T06:04:54.093Z,89
2022-10-13T06:09:55.462Z,88
2022-10-13T06:14:56.969Z,89
2022-10-13T06:19:58.787Z,88
2022-10-13T06:25:00.140Z,88
2022-10-13T06:30:02.349Z,89
2022-10-13T06:35:04.232Z,89
2022-10-13T06:40:06.251Z,90
2022-10-13T06:45:07.470Z,90
2022-10-13T06:50:09.584Z,90
2022-10-13T06:55:10.837Z,90
2022-10-13T07:00:12.186Z,91
2022-10-13T07:05:13.397Z,92
2022-10-13T07:10:15.290Z,92
2022-10-13T07:15:16.674Z,91
2022-10-13T07:20:18.270Z,90
2022-10-13T07:25:19.553Z,89
2022-10-13T07:30:21.278Z,87
2022-10-13T07:35:24.830Z,86
2022-10-13T07:40:24.024Z,86
2022-10-13T07:45:25.054Z,86
2022-10-13T07:50:26.905Z,86
2022-10-13T07:55:28.794Z,86
2022-10-13T08:00:30.322Z,86
2022-10-13T08:05:31.351Z,86
2022-10-13T08:10:32.862Z,86
2022-10-13T08:15:34.949Z,86
2022-10-13T08:20:41.491Z,86
2022-10-13T08:25:37.888Z,86
2022-10-13T08:30:39.772Z,86
2022-10-13T08:35:41.242Z,86
2022-10-13T08:40:42.886Z,86
2022-10-13T08:45:44.241Z,86
2022-10-13T08:50:45.422Z,86
2022-10-13T08:55:47.067Z,86
2022-10-13T09:00:48.365Z,86
2022-10-13T09:05:49.822Z,86
2022-10-13T09:10:51.820Z,86
2022-10-13T09:15:53.755Z,85
2022-10-13T09:20:55.111Z,86
2022-10-13T09:25:57.211Z,85
2022-10-13T09:30:58.490Z,85
2022-10-13T09:35:59.849Z,84
2022-10-13T09:41:01.630Z,80
2022-10-13T09:46:03.504Z,77
2022-10-13T09:51:05.508Z,76
2022-10-13T09:56:07.598Z,74
2022-10-13T10:01:09.258Z,74
2022-10-13T10:11:12.493Z,69
2022-10-13T10:16:13.859Z,69
2022-10-13T10:21:15.004Z,69
2022-10-13T10:26:20.701Z,69
2022-10-13T10:31:18.485Z,67
2022-10-13T10:36:19.829Z,67
2022-10-13T10:41:21.876Z,66
2022-10-13T10:46:23.161Z,66
2022-10-13T10:51:24.589Z,66
2022-10-13T10:56:26.304Z,65
2022-10-13T11:01:27.916Z,64
2022-10-13T11:06:29.180Z,64
2022-10-13T11:11:35.000Z,62
2022-10-13T11:16:33.145Z,62
2022-10-13T11:21:34.670Z,61
2022-10-13T11:26:35.862Z,61
2022-10-13T11:31:37.791Z,61
2022-10-13T11:36:39.888Z,60
2022-10-13T11:41:41.811Z,60
2022-10-13T11:46:43.397Z,60
2022-10-13T11:51:44.897Z,60
2022-10-13T11:56:48.583Z,59
2022-10-13T12:01:48.321Z,59
2022-10-13T13:12:11.775Z,60
2022-10-13T13:17:13.266Z,59
2022-10-13T13:37:20.265Z,60
2022-10-13T13:42:21.676Z,60
2022-10-13T14:02:29.105Z,60
2022-10-13T14:12:32.358Z,60
2022-10-13T14:22:35.755Z,60
2022-10-13T14:27:37.028Z,60
2022-10-13T14:27:43.344Z,60
2022-10-13T14:32:45.180Z,60
2022-10-13T14:37:46.454Z,60
2022-10-13T14:42:47.900Z,60
2022-10-13T14:47:49.027Z,60
2022-10-13T14:57:52.482Z,61
2022-10-13T15:02:54.362Z,61
2022-10-13T15:07:56.178Z,61
2022-10-13T15:12:57.784Z,61
2022-10-13T15:17:58.932Z,62
2022-10-13T15:23:00.965Z,61
2022-10-13T15:28:02.720Z,62
2022-10-13T15:33:04.555Z,62
2022-10-13T15:38:06.230Z,61
2022-10-13T15:43:07.915Z,59
2022-10-13T15:48:09.762Z,58
2022-10-13T15:53:11.116Z,58
2022-10-13T15:58:13.908Z,58
2022-10-13T16:03:14.849Z,58
2022-10-13T16:08:16.163Z,58
2022-10-13T16:13:17.567Z,58
2022-10-13T16:18:18.995Z,58
2022-10-13T16:23:20.201Z,59
2022-10-13T16:28:22.360Z,59
2022-10-13T16:33:24.002Z,59
2022-10-13T16:38:25.757Z,60
2022-10-13T16:43:27.855Z,60
2022-10-13T16:48:30.146Z,61
2022-10-13T16:53:31.777Z,61
2022-10-13T16:58:33.990Z,62
2022-10-13T17:03:35.771Z,63
2022-10-13T17:08:37.679Z,63
2022-10-13T17:13:39.677Z,64
2022-10-13T17:18:41.166Z,64
2022-10-13T17:23:47.489Z,65
2022-10-13T17:28:44.876Z,65
2022-10-13T17:33:46.024Z,66
2022-10-13T17:38:47.426Z,66
2022-10-13T17:43:49.569Z,67
2022-10-13T17:48:51.501Z,67
2022-10-13T17:53:53.553Z,68
2022-10-13T17:58:55.029Z,68
2022-10-13T18:03:56.947Z,69
2022-10-13T18:08:58.753Z,69
2022-10-13T18:14:00.036Z,69
2022-10-13T18:19:02.221Z,70
2022-10-13T18:24:03.980Z,70
2022-10-13T18:29:05.906Z,70
2022-10-13T18:34:07.249Z,71
2022-10-13T18:39:09.358Z,72
2022-10-13T18:44:10.726Z,73
2022-10-13T18:49:12.704Z,72
2022-10-13T18:54:14.125Z,72
2022-10-13T18:59:15.651Z,73
2022-10-13T19:04:17.712Z,73
2022-10-13T19:09:18.942Z,73
2022-10-13T19:14:20.758Z,73
2022-10-13T19:19:22.907Z,74
2022-10-13T19:24:23.941Z,74
2022-10-13T19:29:25.124Z,75
2022-10-13T19:34:26.693Z,77
2022-10-13T19:39:28.710Z,77
2022-10-13T19:44:29.969Z,77
2022-10-13T19:49:31.622Z,77
2022-10-13T19:54:34.115Z,77
2022-10-13T19:59:35.359Z,77
2022-10-13T20:04:37.255Z,77
2022-10-13T20:09:38.445Z,77
2022-10-13T20:14:40.481Z,78
2022-10-13T20:19:42.026Z,78
2022-10-13T20:24:43.156Z,78
2022-10-13T20:29:44.341Z,78
2022-10-13T20:34:45.695Z,78
2022-10-13T20:39:46.980Z,78
2022-10-13T20:44:48.979Z,79
2022-10-13T20:49:50.763Z,79
2022-10-13T20:54:52.620Z,79
2022-10-13T20:59:53.971Z,79
2022-10-13T21:04:56.065Z,79
2022-10-13T21:09:57.807Z,80
2022-10-13T21:14:59.004Z,80
2022-10-13T21:20:00.625Z,80
2022-10-13T21:25:02.429Z,80
2022-10-13T21:30:03.745Z,80
2022-10-13T21:35:05.270Z,80
2022-10-13T21:40:06.952Z,80
2022-10-13T21:45:08.668Z,81
2022-10-13T21:50:09.949Z,82
2022-10-13T21:55:11.296Z,82
2022-10-13T22:15:17.454Z,84
2022-10-13T22:20:19.333Z,85
2022-10-13T22:25:20.778Z,84
2022-10-13T22:30:22.014Z,85
2022-10-13T22:35:23.302Z,88
2022-10-13T22:40:25.252Z,89
2022-10-13T22:45:26.793Z,89
2022-10-13T22:50:28.154Z,88
2022-10-13T22:55:30.137Z,87
2022-10-13T23:00:31.737Z,86
2022-10-13T23:05:32.921Z,85
2022-10-13T23:10:35.013Z,86
2022-10-13T23:15:36.329Z,86
2022-10-13T23:20:38.425Z,87
2022-10-13T23:25:39.814Z,88
2022-10-13T23:30:41.465Z,88
2022-10-13T23:35:42.805Z,88
2022-10-13T23:40:44.907Z,88
2022-10-13T23:45:46.155Z,87
2022-10-13T23:50:48.155Z,87
2022-10-13T23:55:49.645Z,87
